Time;durP1;ratioP1;P1;durP2;ratioP2;P2;SDS_P1;SDS_P2;PMS_P1;PMS_P2;Temp;Humidity;BMP_temperature;BMP_pressure;BME280_temperature;BME280_humidity;BME280_pressure;Samples;Min_cycle;Max_cycle;Signal;HPM_P1;HPM_P2
2022/01/31 00:01:34;;;;;;;0.20;0.10;;;11.00;99.90;;;;;;25703827;23;20201;-72
2022/01/31 00:11:42;;;;;;;0.20;0.10;;;11.00;99.90;;;;;;25678107;23;20311;-67
2022/01/31 00:21:48;;;;;;;4.30;2.73;;;10.90;99.90;;;;;;25678011;23;20187;-67
2022/01/31 00:31:55;;;;;;;0.20;0.10;;;10.90;99.90;;;;;;25714032;23;20205;-70
2022/01/31 00:42:07;;;;;;;0.20;0.10;;;10.90;99.90;;;;;;25717012;23;20189;-69
2022/01/31 00:52:11;;;;;;;14.13;12.53;;;10.80;99.90;;;;;;25690735;23;20173;-70
2022/01/31 01:02:16;;;;;;;0.20;0.10;;;10.60;99.90;;;;;;25715773;23;20250;-69
2022/01/31 01:12:24;;;;;;;0.20;0.10;;;10.70;99.90;;;;;;25715778;23;20746;-69
2022/01/31 01:22:38;;;;;;;0.20;0.10;;;10.60;99.90;;;;;;25689291;23;20193;-69
2022/01/31 01:33:00;;;;;;;0.20;0.10;;;10.70;99.90;;;;;;25714857;23;20176;-69
2022/01/31 01:43:05;;;;;;;0.20;0.10;;;10.60;99.90;;;;;;25686630;23;20201;-67
2022/01/31 01:53:09;;;;;;;0.40;0.40;;;11.00;99.90;;;;;;25687693;23;20257;-68
2022/01/31 02:03:15;;;;;;;0.20;0.10;;;10.90;99.90;;;;;;25713788;23;20196;-74
2022/01/31 02:13:19;;;;;;;0.20;0.20;;;10.40;99.90;;;;;;25687752;23;20225;-73
2022/01/31 02:23:27;;;;;;;0.20;0.10;;;10.80;99.90;;;;;;25713690;23;20172;-65
2022/01/31 02:33:31;;;;;;;17.90;16.43;;;10.90;99.90;;;;;;25685592;23;20643;-65
2022/01/31 02:43:37;;;;;;;0.20;0.10;;;10.60;99.90;;;;;;25712222;23;20267;-65
2022/01/31 02:53:41;;;;;;;0.20;0.00;;;10.60;99.90;;;;;;25711198;23;20189;-65
2022/01/31 03:03:47;;;;;;;20.03;18.33;;;10.30;99.90;;;;;;25711238;23;20320;-64
2022/01/31 03:13:51;;;;;;;0.20;0.10;;;10.00;99.90;;;;;;25710258;23;20708;-65
2022/01/31 03:23:56;;;;;;;0.20;0.10;;;9.80;99.90;;;;;;25710688;23;20755;-64
2022/01/31 03:34:00;;;;;;;0.20;0.10;;;10.00;99.90;;;;;;25710168;23;20185;-64
2022/01/31 03:44:06;;;;;;;0.20;0.10;;;10.20;99.90;;;;;;25682726;23;20616;-65
2022/01/31 03:54:10;;;;;;;0.20;0.10;;;10.10;99.90;;;;;;25709847;23;20209;-65
2022/01/31 04:04:15;;;;;;;0.20;0.10;;;9.90;99.90;;;;;;25709500;23;20194;-64
2022/01/31 04:14:19;;;;;;;0.20;0.10;;;9.80;99.90;;;;;;25709292;23;20288;-65
2022/01/31 04:24:31;;;;;;;0.20;0.10;;;9.60;99.90;;;;;;25709099;23;20173;-65
2022/01/31 04:34:35;;;;;;;0.40;0.40;;;9.40;99.90;;;;;;25682692;23;20224;-65
2022/01/31 04:44:41;;;;;;;0.20;0.00;;;9.10;99.90;;;;;;25708716;23;20608;-65
2022/01/31 04:54:44;;;;;;;0.20;0.10;;;8.80;99.90;;;;;;25705960;23;20632;-64
2022/01/31 05:04:49;;;;;;;1.60;1.60;;;8.60;99.90;;;;;;25709247;23;20192;-64
2022/01/31 05:14:54;;;;;;;0.20;0.10;;;9.30;99.90;;;;;;25711898;23;20201;-65
2022/01/31 05:24:59;;;;;;;0.20;0.10;;;9.70;99.90;;;;;;25715500;23;20628;-64
2022/01/31 05:35:05;;;;;;;0.20;0.07;;;9.10;99.90;;;;;;25709388;23;20229;-65
2022/01/31 05:45:10;;;;;;;0.20;0.10;;;8.70;99.90;;;;;;25714366;23;20177;-69
2022/01/31 05:55:15;;;;;;;0.20;0.10;;;8.50;99.90;;;;;;25712374;23;20192;-69
2022/01/31 06:05:20;;;;;;;0.20;0.10;;;8.80;99.90;;;;;;25713053;23;20698;-65
2022/01/31 06:15:24;;;;;;;0.20;0.07;;;9.00;99.90;;;;;;25712774;23;20523;-64
2022/01/31 06:25:31;;;;;;;0.20;0.00;;;8.70;99.90;;;;;;25711994;23;20228;-70
2022/01/31 06:35:35;;;;;;;0.20;0.20;;;8.80;99.90;;;;;;25711271;23;20268;-73
2022/01/31 06:45:40;;;;;;;1.47;1.40;;;8.70;99.90;;;;;;25682731;23;20325;-67
2022/01/31 06:55:44;;;;;;;0.20;0.03;;;8.90;99.90;;;;;;25705961;23;20181;-67
2022/01/31 07:05:49;;;;;;;0.20;0.00;;;8.40;99.90;;;;;;25703770;23;20240;-68
2022/01/31 07:15:53;;;;;;;0.20;0.00;;;8.30;99.90;;;;;;25704522;23;20197;-69
2022/01/31 07:25:59;;;;;;;0.20;0.03;;;8.30;99.90;;;;;;25706615;23;20634;-67
2022/01/31 07:36:03;;;;;;;0.20;0.10;;;8.50;99.90;;;;;;25707322;23;20189;-73
2022/01/31 07:46:16;;;;;;;0.67;0.67;;;8.90;99.90;;;;;;25708634;23;20154;-72
2022/01/31 07:56:20;;;;;;;0.20;0.00;;;9.10;99.90;;;;;;25707827;23;20182;-67
2022/01/31 08:06:25;;;;;;;0.20;0.17;;;9.40;99.90;;;;;;25707159;23;20204;-75
2022/01/31 08:16:29;;;;;;;0.20;0.07;;;9.80;99.90;;;;;;25705941;23;20468;-64
2022/01/31 08:26:34;;;;;;;0.20;0.00;;;10.10;99.90;;;;;;25706290;23;20174;-65
2022/01/31 08:36:38;;;;;;;0.20;0.10;;;9.80;99.90;;;;;;25706403;23;20189;-74
2022/01/31 08:46:43;;;;;;;0.20;0.10;;;9.90;99.90;;;;;;25709052;23;20507;-72
2022/01/31 08:56:48;;;;;;;0.20;0.10;;;10.40;99.90;;;;;;25714866;23;20182;-75
2022/01/31 09:06:53;;;;;;;0.20;0.10;;;10.70;99.90;;;;;;25714704;23;20212;-74
2022/01/31 09:16:57;;;;;;;0.20;0.10;;;11.40;99.90;;;;;;25715627;23;20216;-75
2022/01/31 09:27:03;;;;;;;0.20;0.10;;;11.40;99.90;;;;;;25714853;23;20181;-73
2022/01/31 09:37:07;;;;;;;0.20;0.00;;;12.30;99.90;;;;;;25709262;23;20186;-74
2022/01/31 09:47:21;;;;;;;0.20;0.00;;;13.50;99.90;;;;;;25713873;23;20173;-73
2022/01/31 09:57:25;;;;;;;0.20;0.10;;;14.00;99.90;;;;;;25659210;23;20676;-74
2022/01/31 10:07:46;;;;;;;0.20;0.10;;;14.00;99.90;;;;;;25708746;23;20193;-66
2022/01/31 10:17:50;;;;;;;0.20;0.10;;;13.60;99.90;;;;;;25709567;23;20215;-68
2022/01/31 10:27:55;;;;;;;0.20;0.10;;;12.90;99.90;;;;;;25681803;23;20223;-67
2022/01/31 10:38:04;;;;;;;0.20;0.10;;;12.60;99.90;;;;;;25674942;23;20257;-71
2022/01/31 10:58:34;;;;;;;0.20;0.10;;;12.60;99.90;;;;;;25708312;23;20201;-70
2022/01/31 11:08:40;;;;;;;0.20;0.10;;;12.70;99.90;;;;;;25680843;23;20230;-70
2022/01/31 11:18:44;;;;;;;0.20;0.10;;;13.50;99.90;;;;;;25708122;23;20189;-70
2022/01/31 11:28:52;;;;;;;0.20;0.07;;;13.90;99.90;;;;;;25706948;23;20533;-69
2022/01/31 11:38:57;;;;;;;0.20;0.10;;;14.30;99.90;;;;;;25706534;23;20227;-70
2022/01/31 11:49:09;;;;;;;0.20;0.00;;;15.00;99.90;;;;;;25707464;23;20169;-71
2022/01/31 11:59:14;;;;;;;0.20;0.00;;;15.80;99.90;;;;;;25708789;23;20208;-67
2022/01/31 12:09:24;;;;;;;0.20;0.10;;;16.00;99.90;;;;;;25654852;23;20259;-68
2022/01/31 12:19:48;;;;;;;0.20;0.10;;;16.30;99.90;;;;;;25707444;23;20185;-67
2022/01/31 12:29:56;;;;;;;0.20;0.10;;;16.10;99.90;;;;;;25688219;23;20166;-67
2022/01/31 12:40:15;;;;;;;0.20;0.10;;;17.40;99.90;;;;;;25712448;23;20232;-67
2022/01/31 12:50:25;;;;;;;0.20;0.20;;;18.00;99.90;;;;;;25684481;23;20181;-67
2022/01/31 13:00:39;;;;;;;0.20;0.13;;;18.20;99.90;;;;;;25711678;23;20208;-68
2022/01/31 13:11:14;;;;;;;0.20;0.10;;;19.90;99.90;;;;;;25685248;23;20215;-69
2022/01/31 13:21:19;;;;;;;0.20;0.10;;;20.40;99.90;;;;;;25707358;23;20204;-68
2022/01/31 13:31:25;;;;;;;0.20;0.17;;;17.20;99.90;;;;;;25701859;23;20173;-68
2022/01/31 13:41:29;;;;;;;2.37;2.27;;;16.90;99.90;;;;;;25704798;23;20631;-68
2022/01/31 13:51:39;;;;;;;0.20;0.10;;;18.80;99.90;;;;;;25709947;23;20170;-67
2022/01/31 14:01:44;;;;;;;0.20;0.20;;;19.50;99.90;;;;;;25684246;23;20299;-73
2022/01/31 14:11:51;;;;;;;0.20;0.07;;;20.00;99.90;;;;;;25684012;23;20522;-76
2022/01/31 14:21:56;;;;;;;0.20;0.10;;;20.90;99.90;;;;;;25685022;23;20190;-75
2022/01/31 14:32:02;;;;;;;0.20;0.10;;;20.70;99.90;;;;;;25709984;23;20482;-74
2022/01/31 14:42:42;;;;;;;0.20;0.20;;;20.90;99.90;;;;;;25684459;23;20204;-75
2022/01/31 14:52:48;;;;;;;0.20;0.10;;;20.40;99.90;;;;;;25711200;23;20505;-78
2022/01/31 15:02:53;;;;;;;0.40;0.40;;;20.40;99.90;;;;;;25710328;23;20204;-78
2022/01/31 15:13:00;;;;;;;0.23;0.23;;;20.10;99.90;;;;;;25708067;23;20248;-74
2022/01/31 15:23:04;;;;;;;0.20;0.10;;;19.70;99.90;;;;;;25709246;23;20228;-75
2022/01/31 15:33:10;;;;;;;0.30;0.27;;;19.80;99.90;;;;;;25681610;23;20227;-71
2022/01/31 15:43:14;;;;;;;0.67;0.67;;;18.70;99.90;;;;;;25715054;23;20186;-78
2022/01/31 15:53:20;;;;;;;0.43;0.43;;;18.00;99.90;;;;;;25675173;23;20169;-77
2022/01/31 16:03:24;;;;;;;15.57;1.43;;;17.40;99.90;;;;;;25675318;23;20216;-77
2022/01/31 16:13:30;;;;;;;0.30;0.30;;;17.00;99.90;;;;;;25676381;23;20515;-76
2022/01/31 16:23:34;;;;;;;3.30;3.10;;;16.30;99.90;;;;;;25702993;23;20216;-76
2022/01/31 16:33:41;;;;;;;0.20;0.10;;;15.90;99.90;;;;;;25700011;23;20995;-68
2022/01/31 16:43:46;;;;;;;0.20;0.00;;;15.00;99.90;;;;;;25674217;23;20723;-72
2022/01/31 16:53:51;;;;;;;0.20;0.00;;;14.30;99.90;;;;;;25676681;23;20265;-71
2022/01/31 17:03:55;;;;;;;0.20;0.20;;;13.90;99.90;;;;;;25704748;23;20201;-70
2022/01/31 17:14:00;;;;;;;0.20;0.00;;;13.20;99.90;;;;;;25710706;23;20565;-69
2022/01/31 17:24:05;;;;;;;0.20;0.00;;;12.70;99.90;;;;;;25709183;23;20611;-66
2022/01/31 17:34:10;;;;;;;0.20;0.10;;;11.90;99.90;;;;;;25677965;23;20646;-65
2022/01/31 17:44:20;;;;;;;0.20;0.10;;;11.70;99.90;;;;;;25680617;23;20194;-75
2022/01/31 17:54:36;;;;;;;1.90;1.80;;;11.30;99.90;;;;;;25710003;23;20215;-74
2022/01/31 18:04:40;;;;;;;0.20;0.00;;;11.00;99.90;;;;;;25708568;23;20205;-66
2022/01/31 18:14:45;;;;;;;0.20;0.10;;;10.70;99.90;;;;;;25708330;23;20216;-66
2022/01/31 18:24:49;;;;;;;1.57;1.43;;;10.20;99.90;;;;;;25674736;23;20188;-68
2022/01/31 18:34:54;;;;;;;1.93;1.83;;;10.10;99.90;;;;;;25701015;23;20631;-66
2022/01/31 18:44:58;;;;;;;0.20;0.03;;;9.90;99.90;;;;;;25709727;23;20265;-68
2022/01/31 18:55:04;;;;;;;0.20;0.10;;;9.90;99.90;;;;;;25708531;23;20165;-68
2022/01/31 19:05:09;;;;;;;0.20;0.00;;;9.80;99.90;;;;;;25680568;23;20263;-66
2022/01/31 19:25:36;;;;;;;0.20;0.10;;;9.60;99.90;;;;;;25681152;23;20284;-66
2022/01/31 19:35:41;;;;;;;0.20;0.00;;;9.60;99.90;;;;;;25707503;23;20172;-67
2022/01/31 19:45:53;;;;;;;0.20;0.00;;;9.30;99.90;;;;;;25712873;23;20268;-68
2022/01/31 19:55:58;;;;;;;0.20;0.00;;;9.30;99.90;;;;;;25709816;23;20153;-67
2022/01/31 20:06:02;;;;;;;0.20;0.10;;;9.20;99.90;;;;;;25702738;23;20229;-65
2022/01/31 20:16:07;;;;;;;3.10;1.70;;;9.20;99.90;;;;;;25702263;23;20771;-66
2022/01/31 20:26:12;;;;;;;0.20;0.00;;;9.20;99.90;;;;;;25702317;23;20193;-72
2022/01/31 20:36:23;;;;;;;0.20;0.00;;;9.20;99.90;;;;;;25701979;23;20169;-70
2022/01/31 20:46:29;;;;;;;0.20;0.00;;;8.90;99.90;;;;;;25708624;23;20216;-71
2022/01/31 20:56:35;;;;;;;0.77;0.77;;;9.00;99.90;;;;;;25710215;23;20165;-70
2022/01/31 21:06:40;;;;;;;0.20;0.00;;;8.80;99.90;;;;;;25711389;23;20227;-64
2022/01/31 21:16:45;;;;;;;0.20;0.00;;;8.60;99.90;;;;;;25710003;23;20165;-65
2022/01/31 21:26:49;;;;;;;0.50;0.50;;;8.50;99.90;;;;;;25709154;23;20195;-65
2022/01/31 21:36:55;;;;;;;1.90;1.80;;;8.40;99.90;;;;;;25708335;23;20193;-64
2022/01/31 21:46:59;;;;;;;0.20;0.00;;;8.10;99.90;;;;;;25708227;23;20166;-64
2022/01/31 21:57:09;;;;;;;0.40;0.40;;;7.80;99.90;;;;;;25681123;23;20628;-64
2022/01/31 22:07:13;;;;;;;0.20;0.00;;;8.00;99.90;;;;;;25677625;23;20204;-63
2022/01/31 22:17:22;;;;;;;0.77;0.77;;;8.10;99.90;;;;;;25678783;23;20634;-72
2022/01/31 22:27:26;;;;;;;0.20;0.00;;;8.10;99.90;;;;;;25680237;23;20192;-72
2022/01/31 22:37:31;;;;;;;0.20;0.07;;;7.90;99.90;;;;;;25706165;23;20185;-70
2022/01/31 22:47:35;;;;;;;0.20;0.00;;;7.80;99.90;;;;;;25705966;23;20224;-71
2022/01/31 22:57:40;;;;;;;0.20;0.00;;;7.70;99.90;;;;;;25679414;23;20606;-70
2022/01/31 23:07:44;;;;;;;0.20;0.00;;;7.70;99.90;;;;;;25704431;23;20209;-70
2022/01/31 23:17:55;;;;;;;0.93;0.90;;;7.70;99.90;;;;;;25705821;23;20488;-69
2022/01/31 23:59:29;;;;;;;0.30;0.30;;;8.00;99.90;;;;;;25441485;23;20256;-70
